Forside
METAR-TAF:

METAR-TAF

Lufthavne :

Ljungbyhed, Sverige

Breddekreds: 56-04N, længdekreds: 013-12E, højde: 43 m

Aktuelle vejr

Denne rapport blev lavet for 31 minutter siden, kl. 10:20 UTC
Vind 7 kt fra østsydøst
Temperatur 7°C
Fugtighed 100%
Tryk 1008 hPa
Sigt: 5000 m
dis,

METAR: ESTL 021020Z AUTO 12007KT 5000 BR OVC002/// 07/07 Q1008

Tid: 11:51 (10:51 UTC)

Vejrudsigter

Denne rapport blev lavet for 25 timer og 24 minutter siden, kl. 09:27 UTC
Foreløbig gælder fra 01 på 09 UTC til 01 på 12 UTC
Vind 8 kt fra sydøst
Sigt: 1000 m
Overskyet i en højde af 100 ft
dis
Midlertidig
fra 01 på 09 UTC til 01 på 12 UTC
Sigt: 6000 m
Brudte skyer i en højde af 800 ft

TAF: ESTL 010927Z 0109/0112 13008KT 1000 BR OVC001 TEMPO 0109/0112 6000 NSW BKN008

Vejrobservationer og prognoser fra mere end 4000 lufthavne (METAR og TAF).

De gule og røde prikker repræsenterer de meteorologiske stationer.

Flyt musen over at se navnet på stationen.

Så klik over at se vejr observationer og prognoser.

At skifte det kort: Klik på de grønne knapper med et sort kors for at zoome ind; på den grønne knap med en bindestreg for at zoome ud; eller på de grønne pile for tilstødende kort.


METAR-TAF: